Devalls Bluff, Arkansas
Current Conditions -  °F | °C
As of 4:15 AM on Tuesday 21 Oct 2014 (Local Time) from KSGT Reporting Station
Clear Clear  
Wind Chill: 13°   Ceiling: Unl
Heat Index: 13°   Visibility: 3mi
Dew Point: 11°   Wind: 5mph
Humidity: 88%   Direction: 260°W
Pressure: 30.05"   Gusts: NA
Location:  34.7129°N, 91.5513°W
Report Text: KSGT 210915Z AUTO 26004KT 3SM CLR 13/11 A3005 RMK AO1
Loading
Personal Weather Stations






























Interactive Weather Map
Tropical Storm Tracking
New forecast layout! Learn more

10-Day Weather Forecast

Advertisements
Track Severe Weather on mobile